Time;durP1;ratioP1;P1;durP2;ratioP2;P2;SDS_P1;SDS_P2;PMS_P1;PMS_P2;Temp;Humidity;BMP_temperature;BMP_pressure;BME280_temperature;BME280_humidity;BME280_pressure;Samples;Min_cycle;Max_cycle;Signal;HPM_P1;HPM_P2
2021/03/07 05:01:38;;;;;;;1.90;1.80;;;3.20;99.90;;;;;;5366609;23;20815;-69
2021/03/07 05:04:05;;;;;;;4.97;2.65;;;3.20;99.90;;;;;;4910921;29;20213;-68
2021/03/07 05:06:34;;;;;;;2.08;1.92;;;3.20;99.90;;;;;;4918715;29;20219;-68
2021/03/07 05:09:01;;;;;;;1.70;1.70;;;3.20;99.90;;;;;;4917593;29;20294;-68
2021/03/07 05:11:27;;;;;;;2.00;2.00;;;3.20;99.90;;;;;;4919215;29;20241;-69
2021/03/07 05:13:53;;;;;;;3.15;2.47;;;3.20;99.90;;;;;;4919011;29;20207;-68
2021/03/07 05:16:20;;;;;;;2.60;2.40;;;3.20;99.90;;;;;;4918511;29;20210;-68
2021/03/07 05:18:47;;;;;;;3.20;3.05;;;3.20;99.90;;;;;;4919028;29;20621;-68
2021/03/07 05:21:14;;;;;;;2.15;2.15;;;3.20;99.90;;;;;;4911098;29;20223;-68
2021/03/07 05:23:40;;;;;;;7.65;2.42;;;3.20;99.90;;;;;;4922349;29;20573;-68
2021/03/07 05:26:06;;;;;;;7.82;2.03;;;3.20;99.90;;;;;;4918351;29;20206;-69
2021/03/07 05:28:32;;;;;;;2.25;2.15;;;3.20;99.90;;;;;;4918794;29;20210;-68
2021/03/07 05:30:58;;;;;;;2.80;2.55;;;3.20;99.90;;;;;;4918109;29;20230;-70
2021/03/07 05:33:25;;;;;;;3.22;2.92;;;3.20;99.90;;;;;;4918265;29;20262;-71
2021/03/07 05:35:52;;;;;;;2.80;2.70;;;3.20;99.90;;;;;;4915845;29;20263;-71
2021/03/07 05:38:18;;;;;;;2.80;2.60;;;3.30;99.90;;;;;;4919108;29;20271;-71
2021/03/07 05:40:44;;;;;;;3.05;2.63;;;3.20;99.90;;;;;;4913993;29;20219;-70
2021/03/07 05:43:10;;;;;;;2.55;2.55;;;3.20;99.90;;;;;;4918164;29;20218;-71
2021/03/07 05:45:37;;;;;;;3.50;2.60;;;3.20;99.90;;;;;;4909308;29;20214;-70
2021/03/07 05:48:04;;;;;;;2.15;2.15;;;3.30;99.90;;;;;;4901042;29;20223;-71
2021/03/07 05:50:30;;;;;;;3.20;3.10;;;3.30;99.90;;;;;;4912870;29;20669;-69
2021/03/07 05:52:57;;;;;;;3.10;2.90;;;3.30;99.90;;;;;;4918264;29;20199;-69
2021/03/07 05:55:25;;;;;;;2.80;2.70;;;3.30;99.90;;;;;;4917359;29;20211;-70
2021/03/07 05:57:51;;;;;;;3.20;3.00;;;3.30;99.90;;;;;;4918156;29;20210;-69
2021/03/07 06:00:19;;;;;;;3.45;3.20;;;3.30;99.90;;;;;;4908798;29;20204;-70
2021/03/07 06:02:46;;;;;;;2.40;2.30;;;3.30;99.90;;;;;;4899059;29;20219;-70
2021/03/07 06:05:14;;;;;;;3.65;3.10;;;3.30;99.90;;;;;;4900371;29;20211;-70
2021/03/07 06:07:41;;;;;;;3.67;3.30;;;3.30;99.90;;;;;;4900111;29;20251;-70
2021/03/07 06:10:13;;;;;;;2.67;2.53;;;3.30;99.90;;;;;;4916195;29;20242;-70
2021/03/07 06:12:39;;;;;;;3.50;3.10;;;3.40;99.90;;;;;;4919122;29;20214;-70
2021/03/07 06:15:07;;;;;;;2.95;2.40;;;3.40;99.90;;;;;;4919280;29;20207;-70
2021/03/07 06:17:41;;;;;;;3.10;2.90;;;3.40;99.90;;;;;;4918740;29;20278;-70
2021/03/07 06:20:10;;;;;;;3.28;2.75;;;3.40;99.90;;;;;;4918175;29;20203;-70
2021/03/07 06:22:37;;;;;;;3.17;2.88;;;3.40;99.90;;;;;;4917201;29;20635;-70
2021/03/07 06:25:05;;;;;;;2.20;1.92;;;3.40;99.90;;;;;;4918930;29;20633;-70
2021/03/07 06:27:32;;;;;;;3.20;2.63;;;3.40;99.90;;;;;;4919287;29;20688;-70
2021/03/07 06:30:02;;;;;;;2.72;2.53;;;3.40;99.90;;;;;;4918889;29;20209;-69
2021/03/07 06:32:30;;;;;;;3.17;2.97;;;3.40;99.90;;;;;;4918767;29;20234;-70
2021/03/07 06:34:57;;;;;;;2.53;2.35;;;3.40;99.90;;;;;;4918462;29;20219;-70
2021/03/07 06:37:24;;;;;;;3.55;3.35;;;3.40;99.90;;;;;;4915193;29;20685;-70
2021/03/07 06:39:50;;;;;;;2.47;2.28;;;3.40;99.90;;;;;;4904108;29;20226;-70
2021/03/07 06:42:18;;;;;;;3.38;3.17;;;3.40;99.90;;;;;;4916590;29;20234;-70
2021/03/07 06:45:07;;;;;;;3.00;2.80;;;3.40;99.90;;;;;;4916584;29;20213;-70
2021/03/07 06:47:34;;;;;;;4.45;4.15;;;3.40;99.90;;;;;;4894639;29;20215;-70
2021/03/07 06:50:21;;;;;;;3.97;2.88;;;3.50;99.90;;;;;;4910776;29;20296;-70
2021/03/07 06:52:55;;;;;;;2.90;2.80;;;3.50;99.90;;;;;;4894079;29;20208;-70
2021/03/07 06:55:24;;;;;;;7.53;4.57;;;3.50;99.90;;;;;;4913719;29;20195;-70
2021/03/07 06:57:51;;;;;;;3.78;3.47;;;3.50;99.90;;;;;;4917296;29;20660;-70
2021/03/07 07:00:36;;;;;;;5.43;5.03;;;3.50;99.90;;;;;;4917245;29;20206;-70
2021/03/07 07:03:08;;;;;;;3.10;2.88;;;3.60;99.90;;;;;;4916789;29;20294;-70
2021/03/07 07:05:36;;;;;;;3.58;3.28;;;3.60;99.90;;;;;;4917569;29;20691;-69
2021/03/07 07:08:03;;;;;;;3.45;3.25;;;3.60;99.90;;;;;;4917365;29;20214;-69
2021/03/07 07:10:29;;;;;;;3.47;3.22;;;3.60;99.90;;;;;;4916565;29;20649;-69
2021/03/07 07:13:04;;;;;;;2.90;2.78;;;3.70;99.90;;;;;;4918904;29;20286;-69
2021/03/07 07:15:31;;;;;;;2.53;2.42;;;3.70;99.90;;;;;;4898509;29;20234;-69
2021/03/07 07:17:57;;;;;;;5.90;2.97;;;3.70;99.90;;;;;;4897640;29;20207;-70
2021/03/07 07:20:24;;;;;;;3.00;2.80;;;3.70;99.90;;;;;;4916774;29;20700;-69
2021/03/07 07:22:50;;;;;;;3.20;3.00;;;3.80;99.90;;;;;;4916903;29;20210;-68
2021/03/07 07:25:18;;;;;;;3.65;3.50;;;3.70;99.90;;;;;;4910372;29;20215;-69
2021/03/07 07:27:44;;;;;;;3.20;3.00;;;3.80;99.90;;;;;;4916939;29;20215;-69
2021/03/07 07:30:12;;;;;;;4.95;3.63;;;3.80;99.90;;;;;;4917580;29;20217;-68
2021/03/07 07:32:43;;;;;;;9.55;4.15;;;3.80;99.90;;;;;;4917055;29;20217;-69
2021/03/07 07:35:15;;;;;;;5.72;4.00;;;3.90;99.90;;;;;;4917615;29;20218;-69
2021/03/07 07:37:50;;;;;;;7.90;5.70;;;3.90;99.90;;;;;;4915707;29;20230;-68
2021/03/07 07:40:16;;;;;;;4.68;4.25;;;3.90;99.90;;;;;;4917037;29;20198;-69
2021/03/07 07:42:56;;;;;;;18.63;12.35;;;3.90;99.90;;;;;;4915801;29;20665;-69
2021/03/07 07:45:23;;;;;;;5.30;4.90;;;3.90;99.90;;;;;;4911801;29;20206;-68
2021/03/07 07:47:51;;;;;;;7.65;6.00;;;3.90;99.90;;;;;;4904696;29;20263;-68
2021/03/07 07:50:34;;;;;;;8.38;5.28;;;4.00;99.90;;;;;;4915588;29;20229;-69
2021/03/07 07:53:01;;;;;;;9.10;5.80;;;4.00;99.90;;;;;;4914226;29;20211;-68
2021/03/07 07:55:53;;;;;;;9.23;5.43;;;4.00;99.90;;;;;;4907002;29;20220;-68
2021/03/07 07:58:49;;;;;;;4.15;3.85;;;4.10;99.90;;;;;;4901913;29;20568;-68
2021/03/07 08:01:16;;;;;;;3.85;3.55;;;4.10;99.90;;;;;;4914745;29;20238;-68
2021/03/07 08:03:44;;;;;;;4.50;4.20;;;4.20;99.90;;;;;;4915564;29;20293;-69
2021/03/07 08:06:11;;;;;;;4.05;3.40;;;4.20;99.90;;;;;;4902946;29;20211;-68
2021/03/07 08:08:39;;;;;;;3.30;3.20;;;4.30;99.90;;;;;;4916689;29;20211;-68
2021/03/07 08:11:07;;;;;;;3.50;3.20;;;4.30;99.90;;;;;;4911385;29;20285;-67
2021/03/07 08:13:47;;;;;;;3.47;3.28;;;4.40;99.90;;;;;;4914819;29;20203;-68
2021/03/07 08:16:34;;;;;;;3.65;3.35;;;4.40;99.90;;;;;;4916083;29;20285;-68
2021/03/07 08:19:01;;;;;;;3.25;3.05;;;4.50;99.90;;;;;;4917083;29;20595;-69
2021/03/07 08:21:27;;;;;;;3.50;2.60;;;4.50;99.90;;;;;;4917322;29;20304;-67
2021/03/07 08:24:02;;;;;;;3.28;3.05;;;4.50;99.90;;;;;;4910192;29;20199;-68
2021/03/07 08:26:52;;;;;;;2.67;2.58;;;4.50;99.90;;;;;;4915676;29;20293;-69
2021/03/07 08:29:38;;;;;;;3.97;2.95;;;4.50;99.90;;;;;;4914211;29;20202;-68
2021/03/07 08:32:25;;;;;;;3.83;3.38;;;4.50;99.90;;;;;;4916208;29;20234;-69
2021/03/07 08:34:54;;;;;;;4.07;3.78;;;4.50;99.90;;;;;;4918997;29;20214;-69
2021/03/07 08:37:21;;;;;;;3.58;3.20;;;4.60;99.90;;;;;;4919597;29;20199;-69
2021/03/07 08:39:47;;;;;;;3.17;2.97;;;4.60;99.90;;;;;;4919176;29;20297;-69
2021/03/07 08:42:28;;;;;;;4.20;3.40;;;4.70;99.90;;;;;;4919742;29;20654;-69
2021/03/07 08:45:17;;;;;;;3.72;3.42;;;4.70;99.90;;;;;;4919841;29;20226;-70
2021/03/07 08:47:57;;;;;;;2.72;2.63;;;4.70;99.90;;;;;;4919583;29;20210;-69
2021/03/07 08:50:26;;;;;;;3.05;2.85;;;4.80;99.90;;;;;;4919336;29;20233;-69
2021/03/07 08:52:53;;;;;;;3.20;2.67;;;4.80;99.90;;;;;;4917859;29;20258;-69
2021/03/07 08:55:19;;;;;;;2.97;2.72;;;4.90;99.90;;;;;;4918747;29;20199;-69
2021/03/07 08:57:47;;;;;;;3.78;2.65;;;4.90;99.90;;;;;;4906309;29;20226;-69
2021/03/07 09:00:15;;;;;;;5.60;2.78;;;4.90;99.90;;;;;;4902610;29;20569;-69
2021/03/07 09:02:42;;;;;;;2.92;2.72;;;5.00;99.90;;;;;;4914126;29;20207;-69
2021/03/07 09:05:25;;;;;;;3.53;3.28;;;5.00;99.90;;;;;;4919684;29;20207;-69
2021/03/07 09:08:01;;;;;;;3.45;2.92;;;5.00;99.90;;;;;;4914298;29;20198;-69
2021/03/07 09:10:32;;;;;;;4.38;3.15;;;5.00;99.90;;;;;;4917650;29;20229;-69
2021/03/07 09:13:10;;;;;;;3.00;2.80;;;5.10;99.90;;;;;;4917920;29;20613;-69
2021/03/07 09:15:37;;;;;;;3.40;2.47;;;5.10;99.90;;;;;;4918934;29;20233;-69
2021/03/07 09:18:04;;;;;;;3.35;3.15;;;5.10;99.90;;;;;;4917473;29;20213;-69
2021/03/07 09:20:48;;;;;;;4.45;3.30;;;5.20;99.90;;;;;;4918464;29;20237;-68
2021/03/07 09:23:34;;;;;;;2.70;2.50;;;5.20;99.90;;;;;;4917096;29;20207;-68
2021/03/07 09:26:02;;;;;;;5.00;2.72;;;5.20;99.90;;;;;;4909156;29;20638;-68
2021/03/07 09:28:38;;;;;;;3.15;2.95;;;5.20;99.90;;;;;;4917493;29;20211;-68
2021/03/07 09:31:06;;;;;;;3.55;3.28;;;5.20;99.90;;;;;;4917363;29;20229;-68
2021/03/07 09:33:33;;;;;;;8.75;3.03;;;5.30;99.90;;;;;;4918243;29;20548;-68
2021/03/07 09:36:11;;;;;;;3.85;3.53;;;5.40;99.90;;;;;;4902034;29;20207;-69
2021/03/07 09:38:51;;;;;;;4.95;2.97;;;5.40;99.90;;;;;;4899850;29;20211;-69
2021/03/07 09:41:27;;;;;;;3.00;2.80;;;5.40;99.90;;;;;;4911373;29;20238;-69
2021/03/07 09:43:54;;;;;;;7.32;3.63;;;5.40;99.90;;;;;;4917605;29;20206;-70
2021/03/07 09:46:20;;;;;;;3.13;2.97;;;5.50;99.90;;;;;;4917783;29;20207;-69
2021/03/07 09:48:47;;;;;;;4.22;3.35;;;5.50;99.90;;;;;;4917942;29;20206;-68
2021/03/07 09:51:16;;;;;;;4.95;2.65;;;5.50;99.90;;;;;;4916850;29;20596;-69
2021/03/07 09:53:43;;;;;;;3.75;3.55;;;5.50;99.90;;;;;;4917474;29;20214;-68
2021/03/07 09:56:26;;;;;;;3.35;3.15;;;5.60;99.90;;;;;;4909668;29;20207;-68
2021/03/07 09:58:52;;;;;;;4.97;3.10;;;5.70;99.90;;;;;;4909189;29;20207;-68
2021/03/07 10:01:18;;;;;;;3.03;2.95;;;5.70;99.90;;;;;;4917013;29;20607;-70
2021/03/07 10:03:44;;;;;;;3.20;3.00;;;5.70;99.90;;;;;;4917662;29;20661;-69
2021/03/07 10:06:14;;;;;;;3.40;2.78;;;5.70;99.90;;;;;;4917531;29;20259;-69
2021/03/07 10:08:41;;;;;;;4.97;3.10;;;5.80;99.90;;;;;;4917785;29;20206;-71
2021/03/07 10:11:16;;;;;;;4.25;3.10;;;5.80;99.90;;;;;;4917016;29;20238;-70
2021/03/07 10:13:44;;;;;;;4.10;3.80;;;5.90;99.90;;;;;;4914287;29;20214;-71
2021/03/07 10:16:22;;;;;;;3.63;3.28;;;5.90;99.90;;;;;;4917131;29;20214;-72
2021/03/07 10:18:48;;;;;;;3.30;3.10;;;5.90;99.90;;;;;;4916628;29;20269;-72
2021/03/07 10:21:14;;;;;;;4.15;3.80;;;5.90;99.90;;;;;;4916093;29;20218;-70
2021/03/07 10:23:40;;;;;;;3.53;3.38;;;5.90;99.90;;;;;;4917277;29;20226;-71
2021/03/07 10:26:07;;;;;;;3.92;3.03;;;6.10;99.90;;;;;;4917527;29;20218;-70
2021/03/07 10:28:34;;;;;;;3.67;3.45;;;6.20;99.90;;;;;;4917360;29;20621;-71
2021/03/07 10:31:08;;;;;;;2.95;2.80;;;6.30;99.90;;;;;;4917113;29;20230;-71
2021/03/07 10:33:35;;;;;;;3.00;2.80;;;6.40;99.90;;;;;;4916703;29;20214;-71
2021/03/07 10:36:07;;;;;;;3.30;3.10;;;6.60;99.90;;;;;;4917337;29;20206;-70
2021/03/07 10:38:35;;;;;;;2.70;2.50;;;6.80;99.90;;;;;;4917046;29;20667;-71
2021/03/07 10:41:18;;;;;;;4.28;3.90;;;6.90;99.90;;;;;;4907941;29;20269;-71
2021/03/07 10:43:45;;;;;;;2.92;2.70;;;7.00;99.90;;;;;;4916720;29;20664;-72
2021/03/07 10:46:23;;;;;;;3.05;2.85;;;7.00;99.90;;;;;;4915621;29;20207;-69
2021/03/07 10:48:52;;;;;;;3.50;3.30;;;7.00;99.90;;;;;;4912613;29;20653;-71
2021/03/07 10:51:18;;;;;;;5.50;4.00;;;7.10;99.90;;;;;;4906232;29;20633;-71
2021/03/07 10:53:45;;;;;;;3.97;3.72;;;7.10;99.90;;;;;;4913372;29;20279;-70
2021/03/07 10:56:11;;;;;;;4.00;2.83;;;7.20;99.90;;;;;;4914757;29;20206;-71
2021/03/07 10:58:37;;;;;;;7.38;3.00;;;7.20;99.90;;;;;;4911969;29;20222;-71
2021/03/07 11:01:03;;;;;;;4.50;2.38;;;7.20;99.90;;;;;;4916612;29;20760;-71
2021/03/07 11:03:30;;;;;;;3.72;3.42;;;7.20;99.90;;;;;;4909718;29;20265;-71
2021/03/07 11:05:57;;;;;;;3.63;3.08;;;7.20;99.90;;;;;;4908801;29;20270;-70
2021/03/07 11:08:23;;;;;;;5.90;3.10;;;7.20;99.90;;;;;;4915728;29;20207;-71
2021/03/07 11:10:49;;;;;;;6.50;3.47;;;7.20;99.90;;;;;;4916034;29;20242;-71
2021/03/07 11:13:15;;;;;;;4.72;4.05;;;7.20;99.90;;;;;;4900564;29;20238;-71
2021/03/07 11:15:41;;;;;;;4.88;4.57;;;7.20;99.90;;;;;;4906720;29;20685;-70
2021/03/07 11:18:08;;;;;;;6.07;4.03;;;7.30;99.90;;;;;;4914090;29;20719;-70
2021/03/07 11:20:35;;;;;;;6.72;6.28;;;7.40;99.90;;;;;;4907588;29;20238;-71
2021/03/07 11:23:01;;;;;;;7.15;5.18;;;7.50;99.90;;;;;;4914091;29;20265;-71
2021/03/07 11:25:28;;;;;;;6.30;4.57;;;7.60;99.90;;;;;;4912275;29;20214;-72
2021/03/07 11:27:54;;;;;;;6.40;5.80;;;7.60;99.90;;;;;;4915972;29;20207;-71
2021/03/07 11:30:21;;;;;;;5.07;4.55;;;7.60;99.90;;;;;;4916708;29;20218;-71
2021/03/07 11:32:47;;;;;;;9.60;7.75;;;7.70;99.90;;;;;;4897631;29;20207;-71
2021/03/07 11:35:13;;;;;;;4.35;4.05;;;7.70;99.90;;;;;;4897534;29;20224;-71
2021/03/07 11:37:40;;;;;;;4.70;4.18;;;7.70;99.90;;;;;;4897207;29;20218;-71
2021/03/07 11:40:07;;;;;;;5.60;4.50;;;7.60;99.90;;;;;;4897087;29;20551;-71
2021/03/07 11:42:34;;;;;;;4.25;3.95;;;7.60;99.90;;;;;;4903046;29;20269;-71
2021/03/07 11:45:00;;;;;;;9.40;3.97;;;7.60;99.90;;;;;;4916357;29;20203;-71
2021/03/07 11:47:26;;;;;;;4.47;4.18;;;7.50;99.90;;;;;;4916218;29;20213;-71
2021/03/07 11:49:52;;;;;;;5.35;4.50;;;7.50;99.90;;;;;;4916525;29;20258;-71
2021/03/07 11:52:18;;;;;;;4.93;4.63;;;7.50;99.90;;;;;;4916083;29;20313;-71
2021/03/07 11:54:45;;;;;;;3.63;3.40;;;7.60;99.90;;;;;;4916339;29;20218;-71
2021/03/07 11:57:12;;;;;;;4.60;4.20;;;7.60;99.90;;;;;;4916037;29;20309;-71
2021/03/07 11:59:38;;;;;;;4.15;3.67;;;7.60;99.90;;;;;;4916073;29;20206;-71
2021/03/07 12:02:04;;;;;;;4.38;4.07;;;7.60;99.90;;;;;;4915316;29;20235;-71
2021/03/07 12:04:30;;;;;;;3.20;3.00;;;7.50;99.90;;;;;;4916320;29;20685;-71
2021/03/07 12:06:57;;;;;;;5.15;4.75;;;7.40;99.90;;;;;;4915260;29;20242;-69
2021/03/07 12:09:23;;;;;;;4.05;3.75;;;7.30;99.90;;;;;;4916723;29;20265;-69
2021/03/07 12:11:50;;;;;;;3.53;3.33;;;7.30;99.90;;;;;;4915694;29;20302;-68
2021/03/07 12:14:16;;;;;;;4.63;4.25;;;7.30;99.90;;;;;;4916241;29;20254;-69
2021/03/07 12:16:42;;;;;;;3.90;3.70;;;7.30;99.90;;;;;;4916077;29;20217;-68
2021/03/07 12:19:08;;;;;;;4.55;4.15;;;7.30;99.90;;;;;;4916349;29;20259;-69
2021/03/07 12:21:34;;;;;;;6.65;5.32;;;7.30;99.90;;;;;;4915889;29;20222;-69
2021/03/07 12:24:01;;;;;;;4.90;4.57;;;7.30;99.90;;;;;;4915787;29;20705;-69
2021/03/07 12:26:27;;;;;;;4.53;4.10;;;7.20;99.90;;;;;;4916535;29;20214;-70
2021/03/07 12:28:54;;;;;;;6.30;5.13;;;7.10;99.90;;;;;;4917518;29;20214;-69
2021/03/07 12:31:20;;;;;;;4.45;4.05;;;7.10;99.90;;;;;;4916189;29;20688;-70
2021/03/07 12:33:46;;;;;;;4.60;4.30;;;7.10;99.90;;;;;;4916885;29;20675;-70
2021/03/07 12:36:12;;;;;;;4.97;4.28;;;7.10;99.90;;;;;;4917459;29;20274;-70
2021/03/07 12:38:38;;;;;;;4.88;4.32;;;7.00;99.90;;;;;;4917153;29;20214;-70
2021/03/07 12:41:04;;;;;;;5.82;4.90;;;6.90;99.90;;;;;;4916748;29;20233;-70
2021/03/07 12:43:31;;;;;;;5.65;4.13;;;6.80;99.90;;;;;;4916765;29;20214;-70
2021/03/07 12:45:58;;;;;;;5.40;4.88;;;6.80;99.90;;;;;;4916461;29;20225;-70
2021/03/07 12:48:24;;;;;;;5.35;4.70;;;6.80;99.90;;;;;;4916614;29;20217;-69
2021/03/07 12:50:50;;;;;;;5.20;4.80;;;6.80;99.90;;;;;;4917107;29;20231;-69
2021/03/07 12:53:16;;;;;;;5.32;4.82;;;6.80;99.90;;;;;;4919952;29;20214;-70
2021/03/07 12:55:42;;;;;;;6.32;5.40;;;6.80;99.90;;;;;;4916560;29;20210;-69
2021/03/07 12:58:08;;;;;;;6.80;6.15;;;6.70;99.90;;;;;;4916675;29;20210;-69
2021/03/07 13:00:34;;;;;;;5.47;4.97;;;6.80;99.90;;;;;;4916131;29;20282;-69
2021/03/07 13:03:01;;;;;;;6.32;5.57;;;6.80;99.90;;;;;;4915824;29;20222;-70
2021/03/07 13:05:28;;;;;;;6.35;5.47;;;6.80;99.90;;;;;;4915858;29;20210;-69
2021/03/07 13:07:54;;;;;;;4.90;4.50;;;6.80;99.90;;;;;;4915659;29;20214;-69
2021/03/07 13:10:20;;;;;;;5.50;5.07;;;6.80;99.90;;;;;;4915913;29;20239;-72
2021/03/07 13:12:46;;;;;;;7.30;5.43;;;6.80;99.90;;;;;;4915192;29;20239;-71
2021/03/07 13:15:14;;;;;;;15.40;9.80;;;6.70;99.90;;;;;;4915746;29;20225;-71
2021/03/07 13:17:41;;;;;;;6.05;5.43;;;6.70;99.90;;;;;;4914893;29;20214;-71
2021/03/07 13:20:10;;;;;;;6.25;5.03;;;6.80;99.90;;;;;;4918570;29;20217;-71
2021/03/07 13:22:37;;;;;;;6.22;5.30;;;6.80;99.90;;;;;;4918703;29;20206;-70
2021/03/07 13:25:03;;;;;;;6.80;6.10;;;6.70;99.90;;;;;;4918139;29;20215;-71
2021/03/07 13:27:30;;;;;;;8.52;6.78;;;6.70;99.90;;;;;;4918847;29;20210;-71
2021/03/07 13:29:56;;;;;;;11.88;8.75;;;6.60;99.90;;;;;;4918287;29;20219;-71
2021/03/07 13:32:23;;;;;;;8.13;7.10;;;6.60;99.90;;;;;;4917831;29;20239;-70
2021/03/07 13:34:49;;;;;;;10.93;7.70;;;6.50;99.90;;;;;;4918237;29;20271;-70
2021/03/07 13:37:16;;;;;;;8.02;7.03;;;6.50;99.90;;;;;;4918363;29;20210;-71
2021/03/07 13:39:42;;;;;;;7.32;6.63;;;6.60;99.90;;;;;;4918159;29;20215;-71
2021/03/07 13:42:08;;;;;;;10.48;8.35;;;6.60;99.90;;;;;;4918161;29;20223;-70
2021/03/07 13:44:35;;;;;;;10.98;6.78;;;6.60;99.90;;;;;;4918141;29;20210;-71
2021/03/07 13:47:02;;;;;;;9.25;7.07;;;6.60;99.90;;;;;;4918042;29;20215;-71
2021/03/07 13:49:29;;;;;;;8.25;7.45;;;6.70;99.90;;;;;;4917880;29;20210;-71
2021/03/07 13:51:55;;;;;;;10.80;7.90;;;6.70;99.90;;;;;;4917980;29;20239;-71
2021/03/07 13:54:22;;;;;;;11.73;8.30;;;6.70;99.90;;;;;;4918251;29;20206;-73
2021/03/07 13:56:49;;;;;;;8.18;7.38;;;6.80;99.90;;;;;;4918147;29;20554;-71
2021/03/07 13:59:15;;;;;;;12.68;7.93;;;6.70;99.90;;;;;;4918039;29;20307;-72
2021/03/07 14:01:41;;;;;;;15.57;7.82;;;6.70;99.90;;;;;;4917195;29;20267;-72
2021/03/07 14:04:07;;;;;;;8.40;7.53;;;6.70;99.90;;;;;;4917727;29;20554;-70
2021/03/07 14:06:34;;;;;;;12.63;8.85;;;6.80;99.90;;;;;;4918297;29;20214;-71
2021/03/07 14:09:00;;;;;;;11.10;8.80;;;6.80;99.90;;;;;;4917164;29;20223;-73
2021/03/07 14:11:27;;;;;;;13.63;8.70;;;6.80;99.90;;;;;;4916911;29;20245;-73
2021/03/07 14:13:53;;;;;;;8.60;7.68;;;6.90;99.90;;;;;;4917712;29;20309;-72
2021/03/07 14:16:19;;;;;;;13.40;8.15;;;7.00;99.90;;;;;;4905833;29;20669;-71
2021/03/07 14:18:46;;;;;;;13.07;7.70;;;7.10;99.90;;;;;;4918586;29;20229;-69
2021/03/07 14:21:12;;;;;;;13.40;8.55;;;7.10;99.90;;;;;;4916927;29;20246;-68
2021/03/07 14:23:38;;;;;;;10.48;8.18;;;7.10;99.90;;;;;;4916703;29;20218;-68
2021/03/07 14:26:05;;;;;;;9.93;7.57;;;7.10;99.90;;;;;;4916989;29;20207;-69
2021/03/07 14:28:33;;;;;;;9.07;7.82;;;7.10;99.90;;;;;;4911528;29;20728;-70
2021/03/07 14:30:59;;;;;;;16.25;8.88;;;7.10;99.90;;;;;;4898443;29;20239;-70
2021/03/07 14:33:25;;;;;;;12.00;8.50;;;7.10;99.90;;;;;;4909176;29;20258;-72
2021/03/07 14:35:51;;;;;;;10.70;9.07;;;7.00;99.90;;;;;;4898543;29;20218;-71
2021/03/07 14:38:18;;;;;;;12.82;9.32;;;7.00;99.90;;;;;;4897543;29;20218;-70
2021/03/07 14:40:44;;;;;;;14.23;9.73;;;7.00;99.90;;;;;;4894708;29;20558;-72
2021/03/07 14:43:10;;;;;;;13.57;9.73;;;7.00;99.90;;;;;;4905061;29;20620;-71
2021/03/07 14:45:37;;;;;;;14.60;10.48;;;7.00;99.90;;;;;;4913091;29;20369;-72
2021/03/07 14:48:04;;;;;;;13.25;8.98;;;6.90;99.90;;;;;;4913481;29;20219;-71
2021/03/07 14:50:30;;;;;;;11.98;8.88;;;7.00;99.90;;;;;;4913580;29;20230;-71
2021/03/07 14:52:57;;;;;;;14.70;10.30;;;6.90;99.90;;;;;;4912975;29;20712;-70
2021/03/07 14:55:24;;;;;;;13.50;9.95;;;6.90;99.90;;;;;;4912415;29;20218;-71
2021/03/07 14:57:50;;;;;;;17.83;9.07;;;6.90;99.90;;;;;;4913661;29;20661;-70
2021/03/07 15:00:18;;;;;;;14.75;11.68;;;6.90;99.90;;;;;;4912994;29;20234;-70
2021/03/07 15:02:45;;;;;;;17.45;13.15;;;6.80;99.90;;;;;;4911810;29;20206;-70
2021/03/07 15:05:12;;;;;;;9.93;8.85;;;6.80;99.90;;;;;;4913075;29;20786;-71
2021/03/07 15:07:39;;;;;;;12.13;9.88;;;6.70;99.90;;;;;;4912244;29;20361;-70
2021/03/07 15:10:06;;;;;;;11.23;9.40;;;6.60;99.90;;;;;;4913099;29;20633;-71
2021/03/07 15:12:32;;;;;;;20.23;11.10;;;6.60;99.90;;;;;;4912110;29;20666;-70
2021/03/07 15:14:58;;;;;;;15.82;8.30;;;6.60;99.90;;;;;;4913877;29;20293;-71
2021/03/07 15:17:25;;;;;;;12.90;9.88;;;6.60;99.90;;;;;;4913246;29;20229;-71
2021/03/07 15:19:52;;;;;;;12.30;10.20;;;6.60;99.90;;;;;;4912186;29;20235;-71
2021/03/07 15:22:21;;;;;;;21.55;13.40;;;6.60;99.90;;;;;;4902814;29;20222;-70
2021/03/07 15:24:47;;;;;;;16.88;9.55;;;6.50;99.90;;;;;;4913199;29;20523;-70
2021/03/07 15:27:13;;;;;;;14.98;10.30;;;6.50;99.90;;;;;;4912810;29;20214;-73
2021/03/07 15:29:39;;;;;;;17.42;11.45;;;6.50;99.90;;;;;;4912578;29;20583;-72
2021/03/07 15:32:06;;;;;;;14.20;10.93;;;6.50;99.90;;;;;;4898801;29;20607;-70
2021/03/07 15:34:32;;;;;;;12.57;9.57;;;6.40;99.90;;;;;;4913719;29;20211;-71
2021/03/07 15:36:59;;;;;;;17.25;11.23;;;6.40;99.90;;;;;;4912985;29;20293;-70
2021/03/07 15:39:25;;;;;;;11.75;9.90;;;6.40;99.90;;;;;;4906662;29;20211;-71
2021/03/07 15:41:52;;;;;;;17.35;10.85;;;6.40;99.90;;;;;;4894287;29;20234;-71
2021/03/07 15:44:18;;;;;;;13.18;9.75;;;6.30;99.90;;;;;;4908657;29;20282;-71
2021/03/07 15:46:44;;;;;;;14.02;9.98;;;6.20;99.90;;;;;;4913366;29;20286;-70
2021/03/07 15:49:10;;;;;;;17.27;10.57;;;6.20;99.90;;;;;;4906994;29;20203;-71
2021/03/07 15:51:36;;;;;;;15.88;11.02;;;6.10;99.90;;;;;;4894009;29;20740;-70
2021/03/07 15:54:04;;;;;;;17.08;9.88;;;6.10;99.90;;;;;;4904596;29;20212;-71
2021/03/07 15:56:31;;;;;;;15.63;9.73;;;6.10;99.90;;;;;;4912041;29;20215;-70
2021/03/07 15:58:57;;;;;;;14.70;11.20;;;6.10;99.90;;;;;;4914233;29;20278;-70
2021/03/07 16:01:23;;;;;;;17.25;12.07;;;6.00;99.90;;;;;;4913704;29;20302;-71
2021/03/07 16:03:49;;;;;;;15.43;10.40;;;6.00;99.90;;;;;;4895748;29;20328;-71
2021/03/07 16:06:15;;;;;;;14.32;11.43;;;6.00;99.90;;;;;;4908359;29;20218;-72
2021/03/07 16:08:41;;;;;;;22.65;13.05;;;5.90;99.90;;;;;;4895944;29;20203;-70
2021/03/07 16:11:08;;;;;;;17.02;10.70;;;5.90;99.90;;;;;;4911134;29;20230;-72
2021/03/07 16:13:34;;;;;;;12.90;10.73;;;5.90;99.90;;;;;;4913077;29;20525;-72
2021/03/07 16:16:05;;;;;;;16.40;13.90;;;5.80;99.90;;;;;;4912796;29;20221;-72
2021/03/07 16:18:31;;;;;;;21.77;13.88;;;5.80;99.90;;;;;;4912267;29;20211;-71
2021/03/07 16:20:58;;;;;;;20.08;12.88;;;5.80;99.90;;;;;;4909695;29;20732;-71
2021/03/07 16:23:24;;;;;;;16.88;11.98;;;5.80;99.90;;;;;;4912170;29;20649;-71
2021/03/07 16:25:50;;;;;;;17.63;11.45;;;5.80;99.90;;;;;;4914027;29;20273;-71
2021/03/07 16:28:18;;;;;;;11.20;10.05;;;5.80;99.90;;;;;;4915385;29;20206;-71
2021/03/07 16:30:44;;;;;;;15.88;10.88;;;5.70;99.90;;;;;;4908383;29;20226;-72
2021/03/07 16:33:11;;;;;;;18.10;13.30;;;5.70;99.90;;;;;;4914889;29;20227;-72
2021/03/07 16:35:37;;;;;;;20.25;14.50;;;5.70;99.90;;;;;;4915515;29;20583;-73
2021/03/07 16:38:03;;;;;;;20.75;14.18;;;5.70;99.90;;;;;;4905823;29;20219;-71
2021/03/07 16:40:29;;;;;;;25.73;16.73;;;5.70;99.90;;;;;;4903494;29;20246;-72
2021/03/07 16:42:55;;;;;;;32.67;21.52;;;5.70;99.90;;;;;;4902212;29;20291;-71
2021/03/07 16:45:22;;;;;;;25.52;17.42;;;5.70;99.90;;;;;;4907162;29;20210;-71
2021/03/07 16:47:48;;;;;;;25.95;17.40;;;5.70;99.90;;;;;;4913815;29;20207;-71
2021/03/07 16:50:14;;;;;;;20.65;14.70;;;5.60;99.90;;;;;;4914966;29;20665;-71
2021/03/07 16:52:41;;;;;;;39.60;22.38;;;5.60;99.90;;;;;;4911485;29;20282;-72
2021/03/07 16:55:08;;;;;;;23.25;15.30;;;5.60;99.90;;;;;;4908693;29;20672;-71
2021/03/07 16:57:34;;;;;;;28.60;17.05;;;5.60;99.90;;;;;;4906705;29;20281;-72
2021/03/07 17:00:00;;;;;;;29.48;19.55;;;5.60;99.90;;;;;;4918730;29;20218;-72
2021/03/07 17:02:27;;;;;;;31.20;19.60;;;5.60;99.90;;;;;;4916727;29;20597;-72
2021/03/07 17:04:54;;;;;;;23.33;13.45;;;5.50;99.90;;;;;;4918311;29;20210;-72
2021/03/07 17:07:20;;;;;;;25.45;15.75;;;5.50;99.90;;;;;;4912440;29;20203;-72
2021/03/07 17:09:46;;;;;;;25.27;15.30;;;5.50;99.90;;;;;;4916696;29;21009;-72
2021/03/07 17:12:12;;;;;;;18.58;13.10;;;5.50;99.90;;;;;;4918740;29;20653;-70
2021/03/07 17:14:38;;;;;;;19.05;13.80;;;5.50;99.90;;;;;;4918317;29;20211;-69
2021/03/07 17:17:05;;;;;;;26.70;15.30;;;5.50;99.90;;;;;;4917898;29;20225;-69
2021/03/07 17:19:32;;;;;;;20.15;12.75;;;5.50;99.90;;;;;;4917593;29;20729;-69
2021/03/07 17:21:58;;;;;;;28.55;18.73;;;5.50;99.90;;;;;;4916704;29;20588;-69
2021/03/07 17:24:24;;;;;;;21.33;13.85;;;5.40;99.90;;;;;;4918218;29;20219;-69
2021/03/07 17:26:50;;;;;;;22.38;14.52;;;5.40;99.90;;;;;;4914623;29;20211;-69
2021/03/07 17:29:16;;;;;;;21.98;15.88;;;5.40;99.90;;;;;;4905621;29;20630;-68
2021/03/07 17:31:42;;;;;;;22.83;13.80;;;5.40;99.90;;;;;;4910654;29;20584;-68
2021/03/07 17:34:09;;;;;;;24.40;15.13;;;5.30;99.90;;;;;;4902161;29;20259;-68
2021/03/07 17:36:36;;;;;;;25.90;15.15;;;5.30;99.90;;;;;;4915556;29;20218;-68
2021/03/07 17:39:03;;;;;;;21.73;15.52;;;5.30;99.90;;;;;;4917758;29;20569;-69
2021/03/07 17:41:29;;;;;;;25.67;15.65;;;5.30;99.90;;;;;;4917660;29;20601;-69
2021/03/07 17:43:55;;;;;;;23.17;15.50;;;5.30;99.90;;;;;;4915464;29;20298;-69
2021/03/07 17:46:22;;;;;;;25.40;16.23;;;5.30;99.90;;;;;;4917680;29;20213;-69
2021/03/07 17:48:48;;;;;;;23.75;15.25;;;5.20;99.90;;;;;;4917756;29;20544;-69
2021/03/07 17:51:14;;;;;;;25.83;16.42;;;5.20;99.90;;;;;;4910567;29;20219;-68
2021/03/07 17:53:41;;;;;;;28.90;16.08;;;5.20;99.90;;;;;;4906538;29;20238;-69
2021/03/07 17:56:07;;;;;;;26.83;15.95;;;5.20;99.90;;;;;;4903873;29;20213;-68